Time;durP1;ratioP1;P1;durP2;ratioP2;P2;SDS_P1;SDS_P2;PMS_P1;PMS_P2;Temp;Humidity;BMP_temperature;BMP_pressure;BME280_temperature;BME280_humidity;BME280_pressure;Samples;Min_cycle;Max_cycle;Signal;HPM_P1;HPM_P2
2023/04/11 00:04:02;;;;;;;2.00;0.40;;;;;;;14.59;52.10;96411.81;10412913;28;20132;-28
2023/04/11 00:09:03;;;;;;;0.80;0.60;;;;;;;14.62;51.71;96437.03;10417326;28;20087;-30
2023/04/11 00:14:04;;;;;;;0.40;0.30;;;;;;;14.57;51.91;96417.66;10415125;28;20458;-29
2023/04/11 00:19:06;;;;;;;1.05;0.30;;;;;;;14.57;51.97;96378.22;10408837;28;20124;-28
2023/04/11 00:24:07;;;;;;;1.15;0.50;;;;;;;14.57;52.03;96372.31;10408853;28;20586;-28
2023/04/11 00:29:07;;;;;;;0.60;0.35;;;;;;;14.56;51.90;96363.94;10408579;28;20404;-29
2023/04/11 00:34:07;;;;;;;0.63;0.43;;;;;;;14.57;51.90;96348.00;10407273;28;20048;-29
2023/04/11 00:39:08;;;;;;;0.40;0.30;;;;;;;14.56;52.00;96351.34;10439684;28;20034;-28
2023/04/11 00:44:10;;;;;;;0.68;0.30;;;;;;;14.60;51.95;96370.69;10408689;28;20766;-29
2023/04/11 00:49:10;;;;;;;0.50;0.32;;;;;;;14.62;52.36;96376.56;10411537;28;20463;-28
2023/04/11 00:54:12;;;;;;;0.35;0.35;;;;;;;14.66;51.94;96377.44;10407957;28;20037;-28
2023/04/11 00:59:13;;;;;;;0.32;0.30;;;;;;;14.65;51.71;96380.81;10448269;28;20076;-28
2023/04/11 01:04:13;;;;;;;0.40;0.40;;;;;;;14.67;51.81;96394.28;10407951;28;20465;-28
2023/04/11 01:09:14;;;;;;;0.63;0.50;;;;;;;14.66;51.51;96390.91;10407742;28;20034;-28
2023/04/11 01:14:19;;;;;;;0.43;0.40;;;;;;;14.62;51.83;96386.66;10412679;28;20563;-28
2023/04/11 01:19:22;;;;;;;0.45;0.30;;;;;;;14.62;51.77;96380.78;10413555;28;20415;-28
2023/04/11 01:24:22;;;;;;;0.75;0.32;;;;;;;14.60;51.94;96372.38;10423378;28;20032;-29
2023/04/11 01:29:23;;;;;;;0.70;0.32;;;;;;;14.60;52.01;96378.25;10421701;28;20021;-28
2023/04/11 01:34:27;;;;;;;0.30;0.30;;;;;;;14.59;52.18;96376.56;10413561;28;20025;-28
2023/04/11 01:39:27;;;;;;;0.30;0.30;;;;;;;14.60;51.93;96395.88;10424026;28;20112;-28
2023/04/11 01:44:30;;;;;;;0.40;0.30;;;;;;;14.57;52.13;96390.81;10429571;28;20043;-28
2023/04/11 01:49:32;;;;;;;0.70;0.40;;;;;;;14.60;52.28;96390.00;10432535;28;20152;-28
2023/04/11 01:54:32;;;;;;;0.20;0.20;;;;;;;14.60;52.07;96403.44;10422468;28;20143;-28
2023/04/11 01:59:35;;;;;;;0.57;0.30;;;;;;;14.57;52.08;96390.81;10445292;28;20063;-29
2023/04/11 02:04:36;;;;;;;0.57;0.52;;;;;;;14.61;51.71;96406.81;10440196;28;20048;-28
2023/04/11 02:09:36;;;;;;;0.50;0.30;;;;;;;14.59;51.79;96408.47;10431063;28;20454;-29
2023/04/11 02:14:41;;;;;;;0.20;0.20;;;;;;;14.62;52.17;96396.72;10445075;28;20546;-28
2023/04/11 02:19:44;;;;;;;1.05;0.40;;;;;;;14.64;52.27;96385.00;10429521;28;20049;-28
2023/04/11 02:24:46;;;;;;;0.43;0.32;;;;;;;14.66;52.37;96397.59;10417674;28;20041;-28
2023/04/11 02:29:46;;;;;;;0.90;0.40;;;;;;;14.69;51.58;96388.41;10410848;28;20495;-29
2023/04/11 02:34:49;;;;;;;0.20;0.20;;;;;;;14.67;51.71;96402.66;10421279;28;20510;-29
2023/04/11 02:39:49;;;;;;;1.43;0.60;;;;;;;14.64;52.07;96389.19;10418857;28;20041;-29
2023/04/11 02:44:54;;;;;;;0.30;0.30;;;;;;;14.64;51.73;96389.19;10412025;28;20296;-28
2023/04/11 02:49:58;;;;;;;1.05;0.30;;;;;;;14.61;52.02;96379.09;10430778;28;20108;-29
2023/04/11 02:55:05;;;;;;;0.40;0.33;;;;;;;14.63;52.01;96398.44;10435149;28;20528;-29
2023/04/11 03:00:06;;;;;;;0.40;0.30;;;;;;;14.63;51.61;96383.31;10442753;28;20037;-28
2023/04/11 03:05:16;;;;;;;0.52;0.30;;;;;;;14.62;51.72;96388.34;10442626;28;20514;-28
2023/04/11 03:10:20;;;;;;;0.40;0.32;;;;;;;14.62;51.82;96378.25;10440775;28;20507;-28
2023/04/11 03:15:20;;;;;;;0.43;0.30;;;;;;;14.61;51.86;96392.53;10442367;28;20091;-28
2023/04/11 03:20:22;;;;;;;0.38;0.32;;;;;;;14.60;51.81;96398.38;10414817;28;20025;-28
2023/04/11 03:25:27;;;;;;;0.40;0.30;;;;;;;14.59;52.03;96391.66;10420906;28;20059;-28
2023/04/11 03:30:27;;;;;;;0.32;0.32;;;;;;;14.57;51.98;96388.31;10433477;28;20021;-28
2023/04/11 03:35:28;;;;;;;0.30;0.30;;;;;;;14.62;51.77;96391.69;10417469;28;20026;-29
2023/04/11 03:40:31;;;;;;;0.20;0.20;;;;;;;14.62;52.05;96375.75;10418111;28;20389;-29
2023/04/11 03:45:40;;;;;;;0.17;0.17;;;;;;;14.65;52.32;96380.81;10441371;28;20520;-29
2023/04/11 03:50:47;;;;;;;0.20;0.20;;;;;;;14.69;51.92;96393.44;10415906;28;20026;-28
2023/04/11 03:55:52;;;;;;;0.45;0.30;;;;;;;14.70;52.02;96404.38;10439622;28;20120;-28
2023/04/11 04:00:54;;;;;;;0.30;0.28;;;;;;;14.70;51.52;96417.81;10436177;28;20067;-28
2023/04/11 04:05:55;;;;;;;0.30;0.30;;;;;;;14.65;51.66;96408.50;10447564;28;20037;-28
2023/04/11 04:10:57;;;;;;;0.30;0.30;;;;;;;14.66;51.83;96426.16;10446611;28;20109;-30
2023/04/11 04:15:57;;;;;;;0.30;0.30;;;;;;;14.64;51.77;96412.72;10464524;28;20041;-29
2023/04/11 04:21:00;;;;;;;0.50;0.40;;;;;;;14.64;51.66;96412.72;10465613;28;20083;-29
2023/04/11 04:26:02;;;;;;;0.30;0.30;;;;;;;14.65;52.11;96429.53;10447362;28;20036;-30
2023/04/11 04:31:04;;;;;;;0.30;0.30;;;;;;;14.62;51.93;96404.28;10440131;28;20021;-29
2023/04/11 04:36:11;;;;;;;3.50;0.32;;;;;;;14.64;51.60;96410.22;10444364;28;20475;-28
2023/04/11 04:41:20;;;;;;;0.40;0.40;;;;;;;14.66;51.56;96407.69;10446030;28;20032;-28
2023/04/11 04:46:30;;;;;;;2.72;0.40;;;;;;;14.71;51.14;96417.00;10441042;28;20511;-28
2023/04/11 04:51:31;;;;;;;0.80;0.43;;;;;;;14.67;51.23;96410.22;10455576;28;20484;-28
2023/04/11 04:56:31;;;;;;;6.00;0.52;;;;;;;14.68;51.75;96492.53;10451544;28;20025;-28
2023/04/11 05:01:38;;;;;;;2.13;0.40;;;;;;;14.67;52.29;96490.00;10437465;28;20029;-28
2023/04/11 05:06:39;;;;;;;0.40;0.40;;;;;;;14.68;52.44;96522.75;10437530;28;20033;-28
2023/04/11 05:11:39;;;;;;;0.90;0.55;;;;;;;14.70;52.34;96546.28;10423079;28;20086;-28
2023/04/11 05:16:41;;;;;;;5.50;0.60;;;;;;;14.69;52.94;96579.88;10446649;28;20492;-28
2023/04/11 05:21:41;;;;;;;4.00;0.50;;;;;;;14.70;52.92;96590.81;10427193;28;20414;-28
2023/04/11 05:26:42;;;;;;;0.88;0.60;;;;;;;14.71;52.34;96600.06;10431619;28;20040;-28
2023/04/11 05:31:44;;;;;;;1.02;0.55;;;;;;;14.72;52.03;96609.31;10446230;28;20037;-28
2023/04/11 05:36:46;;;;;;;1.67;0.50;;;;;;;14.72;52.02;96620.25;10422563;28;20030;-30
2023/04/11 05:41:46;;;;;;;3.58;1.00;;;;;;;14.73;52.12;96648.78;10414603;28;20503;-28
2023/04/11 05:46:49;;;;;;;1.87;0.60;;;;;;;14.70;51.99;96646.25;10419400;28;20068;-29
2023/04/11 05:51:49;;;;;;;3.45;0.43;;;;;;;14.68;51.73;96638.66;10415518;28;20033;-29
2023/04/11 05:56:51;;;;;;;0.80;0.50;;;;;;;14.69;51.94;96649.59;10419110;28;20048;-29
2023/04/11 06:01:53;;;;;;;2.87;0.40;;;;;;;14.69;52.06;96649.59;10422385;28;20036;-28
2023/04/11 06:06:54;;;;;;;1.00;0.40;;;;;;;14.69;52.11;96655.47;10412650;28;20411;-29
2023/04/11 06:11:56;;;;;;;0.95;0.60;;;;;;;14.67;52.23;96636.97;10413035;28;20022;-29
2023/04/11 06:16:56;;;;;;;0.93;0.40;;;;;;;14.68;51.98;96650.44;10413095;28;20030;-29
2023/04/11 06:21:57;;;;;;;0.87;0.40;;;;;;;14.67;52.03;96636.13;10417862;28;20424;-28
2023/04/11 06:26:57;;;;;;;3.10;0.50;;;;;;;14.66;51.98;96642.84;10420559;28;20290;-28
2023/04/11 06:31:58;;;;;;;0.97;0.80;;;;;;;14.68;52.25;96633.63;10420506;28;20040;-28
2023/04/11 06:36:58;;;;;;;0.57;0.38;;;;;;;14.60;52.14;96639.41;10420411;28;20049;-29
2023/04/11 06:41:59;;;;;;;0.57;0.40;;;;;;;14.67;52.45;96652.09;10420034;28;20397;-28
2023/04/11 06:47:00;;;;;;;0.50;0.50;;;;;;;14.69;52.47;96655.47;10410379;28;20033;-29
2023/04/11 06:52:00;;;;;;;0.63;0.40;;;;;;;14.70;52.80;96662.19;10411003;28;20084;-28
2023/04/11 06:57:01;;;;;;;1.05;0.30;;;;;;;14.72;51.88;96680.72;10411188;28;20068;-28
2023/04/11 07:02:01;;;;;;;1.80;0.35;;;;;;;14.71;51.72;96675.66;10418925;28;20087;-29
2023/04/11 07:07:03;;;;;;;3.30;0.50;;;;;;;14.67;52.38;96687.34;10416332;28;20040;-29
2023/04/11 07:12:04;;;;;;;0.40;0.40;;;;;;;14.65;52.05;96688.16;10410578;28;20033;-29
2023/04/11 07:17:04;;;;;;;0.40;0.40;;;;;;;14.64;52.49;96699.06;10410190;28;20480;-28
2023/04/11 07:22:04;;;;;;;0.80;0.60;;;;;;;14.61;52.14;96694.00;10415335;28;20043;-29
2023/04/11 07:27:05;;;;;;;0.40;0.40;;;;;;;14.63;52.26;96690.69;10410095;28;20079;-28
2023/04/11 07:32:05;;;;;;;0.82;0.30;;;;;;;14.62;52.34;96688.94;10410222;28;20280;-28
2023/04/11 07:37:06;;;;;;;0.50;0.47;;;;;;;14.62;52.36;96673.84;10426507;28;20040;-28
2023/04/11 07:42:06;;;;;;;1.13;0.53;;;;;;;14.60;52.51;96665.41;10409507;28;20041;-29
2023/04/11 07:47:07;;;;;;;0.73;0.40;;;;;;;14.61;52.46;96672.16;10417721;28;20291;-29
2023/04/11 07:52:07;;;;;;;0.90;0.30;;;;;;;14.61;52.30;96674.66;10417127;28;20295;-28
2023/04/11 07:57:07;;;;;;;0.50;0.30;;;;;;;14.62;52.35;96685.59;10409011;28;20033;-28
2023/04/11 08:02:08;;;;;;;0.87;0.40;;;;;;;14.63;52.40;96694.84;10417119;28;20040;-28
2023/04/11 08:07:08;;;;;;;0.55;0.47;;;;;;;14.61;52.20;96689.78;10417105;28;20032;-28
2023/04/11 08:12:09;;;;;;;0.53;0.40;;;;;;;14.65;52.39;96699.09;10408917;28;20041;-28
2023/04/11 08:17:13;;;;;;;0.65;0.47;;;;;;;14.67;52.67;96702.47;10411367;28;20045;-28
2023/04/11 08:22:14;;;;;;;0.43;0.30;;;;;;;14.68;52.70;96711.72;10415858;28;20479;-29
2023/04/11 08:27:14;;;;;;;0.40;0.40;;;;;;;14.69;52.45;96710.91;10408496;28;20041;-29
2023/04/11 08:32:14;;;;;;;0.73;0.30;;;;;;;14.66;52.08;96710.88;10408234;28;20029;-29
2023/04/11 08:37:15;;;;;;;0.73;0.55;;;;;;;14.65;52.32;96709.19;10416399;28;20112;-28
2023/04/11 08:42:23;;;;;;;0.65;0.40;;;;;;;14.64;52.61;96706.63;10424543;28;20029;-29
2023/04/11 08:47:25;;;;;;;0.63;0.40;;;;;;;14.59;52.68;96716.63;10408071;28;20061;-28
2023/04/11 08:52:26;;;;;;;0.50;0.40;;;;;;;14.60;52.28;96715.81;10408117;28;20087;-29
2023/04/11 08:57:30;;;;;;;0.30;0.30;;;;;;;14.60;52.34;96705.72;10407835;28;20057;-29
2023/04/11 09:02:30;;;;;;;0.70;0.65;;;;;;;14.62;52.33;96720.88;10410798;28;20041;-28
2023/04/11 09:07:47;;;;;;;1.07;0.50;;;;;;;14.62;52.58;96709.09;10409821;28;20038;-28
2023/04/11 09:12:47;;;;;;;0.93;0.30;;;;;;;14.56;52.42;96708.19;10419628;28;20028;-28
2023/04/11 09:17:48;;;;;;;0.50;0.30;;;;;;;14.62;51.99;96714.16;10407372;28;20381;-28
2023/04/11 09:22:49;;;;;;;0.40;0.40;;;;;;;14.64;52.39;96717.56;10407581;28;20041;-29
2023/04/11 09:28:06;;;;;;;0.38;0.38;;;;;;;14.62;52.08;96698.19;10407309;28;20029;-29
2023/04/11 09:33:21;;;;;;;0.40;0.40;;;;;;;14.61;52.36;96699.03;10407993;28;20036;-28
2023/04/11 09:38:33;;;;;;;0.85;0.50;;;;;;;14.62;52.93;96696.50;10430662;28;20041;-28
2023/04/11 09:43:54;;;;;;;0.43;0.40;;;;;;;14.67;52.89;96701.66;10422636;28;20175;-29
2023/04/11 09:48:55;;;;;;;0.47;0.47;;;;;;;14.67;52.70;96689.88;10413742;28;20040;-28
2023/04/11 09:53:56;;;;;;;0.82;0.40;;;;;;;14.69;52.27;96693.25;10413829;28;20033;-29
2023/04/11 09:58:58;;;;;;;0.40;0.40;;;;;;;14.67;52.47;96699.97;10413442;28;20038;-29
2023/04/11 10:03:59;;;;;;;0.40;0.40;;;;;;;14.67;52.21;96711.72;10413594;28;20120;-28
2023/04/11 10:09:07;;;;;;;0.80;0.25;;;;;;;14.67;52.36;96711.72;10421731;28;20197;-29
2023/04/11 10:14:07;;;;;;;0.70;0.40;;;;;;;14.66;52.43;96715.03;10413061;28;20049;-28
2023/04/11 10:19:22;;;;;;;0.20;0.20;;;;;;;14.66;52.31;96700.78;10412541;28;20057;-29
2023/04/11 10:24:22;;;;;;;0.30;0.20;;;;;;;14.66;52.66;96703.31;10424287;28;20037;-28
2023/04/11 10:29:29;;;;;;;0.40;0.40;;;;;;;14.64;52.32;96699.94;10420600;28;20033;-28
2023/04/11 10:34:30;;;;;;;0.60;0.47;;;;;;;14.64;52.59;96692.38;10412402;28;20432;-29
2023/04/11 10:39:54;;;;;;;0.25;0.25;;;;;;;14.65;52.55;96673.91;10415582;28;20099;-29
2023/04/11 10:45:16;;;;;;;0.75;0.43;;;;;;;14.66;52.53;96690.72;10427298;28;20506;-28
2023/04/11 10:50:26;;;;;;;0.20;0.13;;;;;;;14.66;52.16;96702.44;10419834;28;20475;-29
2023/04/11 10:55:28;;;;;;;0.35;0.35;;;;;;;14.65;52.36;96690.66;10411184;28;20087;-28
2023/04/11 11:00:29;;;;;;;0.80;0.40;;;;;;;14.65;52.43;96678.94;10411252;28;20092;-28
2023/04/11 11:05:29;;;;;;;0.30;0.30;;;;;;;14.66;52.46;96690.72;10411584;28;20561;-28
2023/04/11 11:10:45;;;;;;;0.30;0.30;;;;;;;14.67;52.89;96677.28;10410239;28;20296;-29
2023/04/11 11:15:47;;;;;;;0.98;0.43;;;;;;;14.68;52.87;96689.03;10414356;28;20332;-29
2023/04/11 11:20:53;;;;;;;0.40;0.40;;;;;;;14.73;52.60;96714.31;10418452;28;20041;-28
2023/04/11 11:25:56;;;;;;;0.70;0.40;;;;;;;14.70;52.75;96707.53;10418655;28;20059;-28
2023/04/11 11:30:56;;;;;;;0.55;0.30;;;;;;;14.71;52.46;96709.28;10428697;28;20032;-28
2023/04/11 11:35:59;;;;;;;0.40;0.40;;;;;;;14.69;52.18;96705.84;10413629;28;20507;-29
2023/04/11 11:41:01;;;;;;;0.95;0.60;;;;;;;14.69;52.13;96700.00;10417640;28;20163;-29
2023/04/11 11:46:15;;;;;;;0.55;0.50;;;;;;;14.69;52.52;96700.81;10409599;28;20052;-28
2023/04/11 11:51:15;;;;;;;0.35;0.35;;;;;;;14.71;52.38;96694.16;10426434;28;20026;-28
2023/04/11 11:56:16;;;;;;;0.30;0.30;;;;;;;14.77;51.82;96705.97;10408255;28;20029;-29
2023/04/11 12:01:16;;;;;;;0.63;0.30;;;;;;;14.75;52.24;96703.44;10409266;28;20075;-28
2023/04/11 12:06:17;;;;;;;0.32;0.30;;;;;;;14.81;52.08;96700.16;10408793;28;20046;-28
2023/04/11 12:11:17;;;;;;;0.67;0.23;;;;;;;14.83;51.98;96703.53;10417136;28;20034;-29
2023/04/11 12:16:20;;;;;;;0.45;0.30;;;;;;;14.85;51.60;96696.84;10416782;28;20801;-28
2023/04/11 12:21:21;;;;;;;0.30;0.30;;;;;;;14.85;51.72;96692.66;10424859;28;20080;-28
2023/04/11 12:26:22;;;;;;;0.40;0.30;;;;;;;14.85;51.49;96681.75;10408738;28;20445;-28
2023/04/11 12:31:24;;;;;;;0.60;0.40;;;;;;;14.84;51.87;96688.44;10419789;28;20033;-28
2023/04/11 12:36:24;;;;;;;0.30;0.30;;;;;;;14.84;52.25;96685.91;10433320;28;20037;-28
2023/04/11 12:41:25;;;;;;;0.40;0.30;;;;;;;14.82;52.12;96677.50;10407812;28;20029;-29
2023/04/11 12:46:25;;;;;;;1.17;0.23;;;;;;;14.82;52.40;96682.53;10408589;28;20141;-28
2023/04/11 12:51:26;;;;;;;0.22;0.22;;;;;;;14.84;51.81;96680.03;10432944;28;20115;-29
2023/04/11 12:56:26;;;;;;;0.38;0.32;;;;;;;14.83;51.90;96678.31;10407465;28;20074;-29
2023/04/11 13:01:27;;;;;;;0.30;0.30;;;;;;;14.83;52.08;96680.84;10416403;28;20029;-29
2023/04/11 13:06:28;;;;;;;0.87;0.53;;;;;;;14.80;51.91;96669.06;10426106;28;20067;-28
2023/04/11 13:11:28;;;;;;;0.40;0.30;;;;;;;14.80;52.03;96686.72;10414327;28;20112;-29
2023/04/11 13:16:29;;;;;;;0.43;0.30;;;;;;;14.78;51.87;96688.34;10431596;28;20108;-29
2023/04/11 13:21:30;;;;;;;1.20;0.27;;;;;;;14.77;52.19;96679.09;10423507;28;20041;-28
2023/04/11 13:26:30;;;;;;;0.30;0.30;;;;;;;14.79;52.34;96677.47;10450372;28;20041;-28
2023/04/11 13:31:31;;;;;;;0.27;0.27;;;;;;;14.77;52.42;96669.00;10416919;28;20021;-28
2023/04/11 13:36:31;;;;;;;0.40;0.20;;;;;;;14.77;52.13;96661.47;10432217;28;20094;-28
2023/04/11 13:41:32;;;;;;;0.40;0.30;;;;;;;14.78;52.24;96668.19;10417039;28;20042;-28
2023/04/11 13:46:32;;;;;;;0.30;0.30;;;;;;;14.78;52.24;96664.84;10423519;28;20056;-29
2023/04/11 13:51:32;;;;;;;1.23;0.30;;;;;;;14.78;51.92;96664.84;10421739;28;20075;-29
2023/04/11 13:56:33;;;;;;;0.20;0.20;;;;;;;14.77;52.42;96655.59;10413736;28;20060;-28
2023/04/11 14:01:33;;;;;;;0.57;0.33;;;;;;;14.77;52.64;96648.03;10431036;28;20304;-28
2023/04/11 14:06:34;;;;;;;0.70;0.40;;;;;;;14.76;52.74;96649.69;10421230;28;20040;-29
2023/04/11 14:11:35;;;;;;;0.65;0.40;;;;;;;14.77;52.65;96651.38;10429513;28;20291;-28
2023/04/11 14:16:35;;;;;;;0.30;0.20;;;;;;;14.79;52.38;96647.22;10421294;28;20048;-28
2023/04/11 14:21:36;;;;;;;0.50;0.30;;;;;;;14.80;52.19;96648.06;10421223;28;20094;-28
2023/04/11 14:26:36;;;;;;;0.52;0.28;;;;;;;14.79;52.12;96644.72;10414344;28;20040;-29
2023/04/11 14:31:36;;;;;;;0.67;0.30;;;;;;;14.75;52.19;96640.44;10420624;28;20140;-28
2023/04/11 14:36:37;;;;;;;0.30;0.30;;;;;;;14.77;52.60;96633.72;10412361;28;20799;-28
2023/04/11 14:41:37;;;;;;;0.65;0.30;;;;;;;14.77;52.54;96637.94;10412942;28;20037;-28
2023/04/11 14:46:37;;;;;;;0.73;0.50;;;;;;;14.78;52.22;96640.47;10428331;28;20091;-28
2023/04/11 14:51:38;;;;;;;0.50;0.30;;;;;;;14.76;52.28;96637.09;10429399;28;20037;-29
2023/04/11 14:56:38;;;;;;;0.27;0.27;;;;;;;14.75;52.01;96625.31;10413100;28;20411;-29
2023/04/11 15:01:39;;;;;;;0.47;0.47;;;;;;;14.76;52.02;96606.03;10411516;28;20041;-30
2023/04/11 15:06:39;;;;;;;0.50;0.20;;;;;;;14.76;52.53;96606.84;10411404;28;20476;-28
2023/04/11 15:11:39;;;;;;;0.20;0.20;;;;;;;14.73;52.43;96596.75;10427151;28;20063;-28
2023/04/11 15:16:40;;;;;;;0.97;0.27;;;;;;;14.75;51.94;96597.59;10418979;28;20121;-28
2023/04/11 15:21:40;;;;;;;0.20;0.20;;;;;;;14.75;52.34;96605.16;10410258;28;20049;-29
2023/04/11 15:26:43;;;;;;;0.43;0.30;;;;;;;14.75;52.43;96586.66;10418289;28;20291;-28
2023/04/11 15:31:45;;;;;;;0.77;0.30;;;;;;;14.76;52.48;96585.88;10418330;28;20104;-29
2023/04/11 15:36:45;;;;;;;0.30;0.30;;;;;;;14.77;53.07;96593.41;10418372;28;20068;-29
2023/04/11 15:41:46;;;;;;;0.45;0.30;;;;;;;14.78;52.75;96579.97;10418215;28;20030;-29
2023/04/11 15:46:46;;;;;;;0.40;0.20;;;;;;;14.79;52.34;96576.66;10411552;28;20037;-28
2023/04/11 15:51:47;;;;;;;0.30;0.27;;;;;;;14.78;52.46;96569.91;10432121;28;20372;-29
2023/04/11 15:56:48;;;;;;;0.20;0.20;;;;;;;14.76;52.70;96565.72;10409127;28;20295;-28
2023/04/11 16:01:50;;;;;;;0.63;0.50;;;;;;;14.76;52.78;96561.50;10418960;28;20036;-28
2023/04/11 16:06:51;;;;;;;0.55;0.25;;;;;;;14.74;52.74;96562.28;10417120;28;20499;-28
2023/04/11 16:11:52;;;;;;;1.40;0.37;;;;;;;14.80;53.03;96549.78;10417706;28;20021;-30
2023/04/11 16:16:52;;;;;;;4.57;0.67;;;;;;;14.77;52.65;96548.06;10416678;28;20291;-30
2023/04/11 16:21:52;;;;;;;7.70;0.75;;;;;;;14.79;52.88;96559.03;10408363;28;20513;-29
2023/04/11 16:26:53;;;;;;;3.58;0.57;;;;;;;14.79;53.03;96551.47;10414006;28;20041;-28
2023/04/11 16:31:54;;;;;;;7.53;0.77;;;;;;;14.78;52.91;96553.97;10418921;28;20042;-28
2023/04/11 16:36:57;;;;;;;2.22;0.98;;;;;;;14.79;52.72;96546.44;10416254;28;20037;-29
2023/04/11 16:41:57;;;;;;;1.33;0.40;;;;;;;14.73;52.42;96521.16;10421447;28;20109;-28
2023/04/11 16:46:57;;;;;;;8.57;0.73;;;;;;;14.80;52.78;96532.13;10442871;28;20025;-28
2023/04/11 16:51:58;;;;;;;2.13;0.40;;;;;;;14.82;52.57;96533.84;10437773;28;20071;-29
2023/04/11 16:56:58;;;;;;;0.60;0.30;;;;;;;14.80;53.27;96527.09;10430944;28;20091;-28
2023/04/11 17:01:59;;;;;;;11.07;0.90;;;;;;;14.82;52.38;96520.41;10427383;28;20704;-28
2023/04/11 17:06:59;;;;;;;5.70;1.67;;;;;;;14.85;52.95;96508.69;10442352;28;20808;-28
2023/04/11 17:12:01;;;;;;;2.17;0.60;;;;;;;14.90;52.72;96514.63;10446511;28;20032;-29
2023/04/11 17:17:01;;;;;;;3.83;0.45;;;;;;;14.91;52.33;96511.28;10449888;28;20036;-28
2023/04/11 17:22:01;;;;;;;7.40;1.50;;;;;;;14.95;52.80;96518.00;10445388;28;20041;-29
2023/04/11 17:27:02;;;;;;;2.63;0.60;;;;;;;14.95;52.53;96512.16;10433392;28;20041;-28
2023/04/11 17:32:02;;;;;;;2.85;0.75;;;;;;;14.97;52.57;96515.53;10422921;28;20029;-29
2023/04/11 17:37:03;;;;;;;2.97;0.60;;;;;;;14.96;52.92;96512.19;10421494;28;20032;-28
2023/04/11 17:42:03;;;;;;;1.27;0.60;;;;;;;14.99;52.57;96509.66;10414342;28;20040;-29
2023/04/11 17:47:05;;;;;;;3.20;0.52;;;;;;;14.99;52.75;96503.78;10429739;28;20117;-29
2023/04/11 17:52:05;;;;;;;4.03;0.80;;;;;;;15.00;52.95;96500.41;10425736;28;20045;-28
2023/04/11 17:57:06;;;;;;;5.20;1.43;;;;;;;15.01;53.18;96497.09;10435074;28;20722;-28
2023/04/11 18:02:09;;;;;;;5.13;0.52;;;;;;;15.02;52.69;96499.59;10445400;28;20043;-28
2023/04/11 18:07:10;;;;;;;7.70;0.82;;;;;;;15.03;52.97;96501.28;10417190;28;20048;-28
2023/04/11 18:12:10;;;;;;;4.00;0.70;;;;;;;15.06;53.41;96496.31;10431305;28;20373;-29
2023/04/11 18:17:10;;;;;;;2.22;0.60;;;;;;;15.07;53.22;96487.91;10426676;28;20288;-28
2023/04/11 18:22:11;;;;;;;3.37;0.43;;;;;;;15.08;53.32;96487.06;10412454;28;20433;-30
2023/04/11 18:27:11;;;;;;;2.93;0.60;;;;;;;15.09;54.09;96491.28;10419686;28;20558;-28
2023/04/11 18:32:11;;;;;;;3.87;0.83;;;;;;;15.14;53.87;96484.63;10430495;28;20045;-28
2023/04/11 18:37:12;;;;;;;1.07;0.50;;;;;;;15.17;53.87;96494.72;10418963;28;20044;-29
2023/04/11 18:42:12;;;;;;;1.83;0.87;;;;;;;15.17;53.09;96487.16;10424293;28;20052;-28
2023/04/11 18:47:13;;;;;;;1.27;0.47;;;;;;;15.19;53.69;96497.25;10448368;28;20287;-29
2023/04/11 18:52:13;;;;;;;4.80;0.80;;;;;;;15.19;53.07;96494.75;10443345;28;20315;-29
2023/04/11 18:57:13;;;;;;;4.30;0.90;;;;;;;15.10;50.86;96505.56;10438138;28;20419;-28
2023/04/11 19:02:15;;;;;;;5.87;0.73;;;;;;;15.11;51.78;96499.69;10438346;28;20040;-28
2023/04/11 19:07:16;;;;;;;4.00;0.90;;;;;;;15.10;52.07;96498.00;10438411;28;20033;-29
2023/04/11 19:12:18;;;;;;;3.80;0.77;;;;;;;15.13;52.80;96489.63;10437546;28;20479;-29
2023/04/11 19:17:18;;;;;;;3.03;0.95;;;;;;;15.10;53.17;96477.84;10445809;28;20049;-29
2023/04/11 19:22:18;;;;;;;5.90;1.00;;;;;;;15.09;53.34;96486.22;10442969;28;20067;-29
2023/04/11 19:27:20;;;;;;;1.17;0.70;;;;;;;15.10;52.99;96471.97;10445970;28;20025;-29
2023/04/11 19:32:20;;;;;;;4.32;1.00;;;;;;;15.06;53.51;96466.06;10441473;28;20299;-29
2023/04/11 19:37:22;;;;;;;2.43;0.90;;;;;;;15.07;53.43;96455.13;10406746;28;20037;-29
2023/04/11 19:42:23;;;;;;;1.67;0.85;;;;;;;15.06;53.18;96461.00;10418899;28;20064;-29
2023/04/11 19:47:24;;;;;;;3.33;0.80;;;;;;;15.04;53.79;96452.56;10408934;28;20518;-28
2023/04/11 19:52:25;;;;;;;4.00;1.57;;;;;;;14.98;54.82;96447.50;10415916;28;20029;-28
2023/04/11 19:57:26;;;;;;;2.90;0.65;;;;;;;14.99;54.77;96429.00;10412409;28;20292;-28
2023/04/11 20:02:26;;;;;;;2.33;1.00;;;;;;;14.99;54.71;96429.00;10435295;28;20033;-28
2023/04/11 20:07:27;;;;;;;4.00;0.90;;;;;;;15.04;53.29;96427.34;10410593;28;20399;-28
2023/04/11 20:12:27;;;;;;;2.77;1.00;;;;;;;15.04;53.74;96417.28;10425687;28;20476;-29
2023/04/11 20:17:27;;;;;;;4.87;0.87;;;;;;;15.02;53.50;96408.88;10413775;28;20525;-29
2023/04/11 20:22:28;;;;;;;8.48;0.90;;;;;;;15.05;54.74;96401.34;10408523;28;20064;-28
2023/04/11 20:27:28;;;;;;;2.47;0.73;;;;;;;15.06;53.71;96392.94;10417083;28;20033;-28
2023/04/11 20:32:29;;;;;;;5.13;0.90;;;;;;;15.05;54.15;96386.22;10416930;28;20026;-28
2023/04/11 20:37:30;;;;;;;1.80;1.17;;;;;;;15.05;54.03;96380.31;10408710;28;20037;-28
2023/04/11 20:42:31;;;;;;;2.53;0.70;;;;;;;15.03;54.13;96382.81;10436742;28;20463;-28
2023/04/11 20:47:36;;;;;;;1.70;0.60;;;;;;;15.01;54.07;96366.84;10410080;28;20041;-28
2023/04/11 20:52:36;;;;;;;1.35;0.73;;;;;;;15.01;53.87;96361.81;10406431;28;20022;-28
2023/04/11 20:57:37;;;;;;;2.78;0.75;;;;;;;15.02;54.00;96367.69;10408190;28;20063;-28
2023/04/11 21:02:37;;;;;;;1.80;0.83;;;;;;;15.02;53.89;96368.53;10422616;28;20041;-29
2023/04/11 21:07:39;;;;;;;3.00;0.70;;;;;;;15.02;53.68;96358.44;10408979;28;20037;-28
2023/04/11 21:12:40;;;;;;;3.28;1.00;;;;;;;15.01;53.81;96366.84;10407882;28;20559;-28
2023/04/11 21:17:40;;;;;;;1.20;0.65;;;;;;;14.99;54.71;96368.50;10415628;28;20120;-28
2023/04/11 21:22:41;;;;;;;2.47;0.80;;;;;;;14.98;54.56;96364.31;10423851;28;20034;-29
2023/04/11 21:27:42;;;;;;;3.30;1.30;;;;;;;14.98;54.51;96366.84;10415782;28;20364;-29
2023/04/11 21:32:42;;;;;;;2.45;0.68;;;;;;;14.98;54.27;96371.88;10421207;28;20044;-28
2023/04/11 21:37:42;;;;;;;2.53;0.60;;;;;;;15.01;54.17;96373.59;10432352;28;20059;-28
2023/04/11 21:42:43;;;;;;;2.13;0.70;;;;;;;15.00;54.14;96361.78;10414447;28;20041;-29
2023/04/11 21:47:43;;;;;;;2.03;0.70;;;;;;;15.01;53.80;96366.03;10422602;28;20059;-29
2023/04/11 21:52:45;;;;;;;2.73;1.00;;;;;;;14.99;53.95;96363.47;10422646;28;20284;-29
2023/04/11 21:57:45;;;;;;;3.08;0.93;;;;;;;14.97;54.18;96347.50;10413810;28;20284;-28
2023/04/11 22:02:45;;;;;;;2.90;0.50;;;;;;;15.00;53.97;96344.13;10430225;28;20033;-29
2023/04/11 22:07:49;;;;;;;1.27;0.63;;;;;;;14.99;53.69;96348.34;10413352;28;20312;-29
2023/04/11 22:12:51;;;;;;;2.35;0.82;;;;;;;14.97;53.32;96334.91;10421811;28;20021;-29
2023/04/11 22:17:54;;;;;;;3.35;0.70;;;;;;;14.99;53.79;96338.28;10413622;28;20045;-28
2023/04/11 22:22:56;;;;;;;1.83;0.65;;;;;;;14.99;54.07;96332.38;10420187;28;20517;-28
2023/04/11 22:27:57;;;;;;;3.13;0.57;;;;;;;14.99;53.70;96315.59;10412917;28;20033;-28
2023/04/11 22:33:00;;;;;;;1.58;0.60;;;;;;;14.99;53.49;96307.16;10421164;28;20060;-28
2023/04/11 22:38:02;;;;;;;0.90;0.63;;;;;;;14.98;53.60;96300.44;10428564;28;20405;-29
2023/04/11 22:43:04;;;;;;;2.33;0.70;;;;;;;14.98;54.04;96285.31;10421574;28;20025;-29
2023/04/11 22:48:04;;;;;;;2.33;0.70;;;;;;;14.97;53.96;96274.41;10418579;28;20172;-28
2023/04/11 22:53:08;;;;;;;3.00;1.05;;;;;;;14.97;54.02;96279.44;10435458;28;20562;-29
2023/04/11 22:58:08;;;;;;;1.25;0.65;;;;;;;14.98;54.13;96260.97;10413239;28;20508;-29
2023/04/11 23:03:11;;;;;;;3.28;0.63;;;;;;;15.00;53.42;96258.44;10436242;28;20116;-28
2023/04/11 23:08:11;;;;;;;1.55;0.50;;;;;;;15.01;53.22;96255.94;10424819;28;20086;-29
2023/04/11 23:13:12;;;;;;;1.50;0.70;;;;;;;15.02;53.19;96247.53;10419686;28;20059;-29
2023/04/11 23:18:13;;;;;;;1.23;0.40;;;;;;;15.01;53.17;96230.72;10436126;28;20292;-29
2023/04/11 23:23:14;;;;;;;3.05;0.90;;;;;;;15.01;53.06;96205.53;10418811;28;20044;-28